sensor_id;sensor_type;location;lat;lon;timestamp;temperature;humidity
45849;DHT22;31567;54.600;9.842;2023-02-01T00:02:03;5.50;99.90
45849;DHT22;31567;54.600;9.842;2023-02-01T00:05:43;5.60;99.90
45849;DHT22;31567;54.600;9.842;2023-02-01T00:09:22;5.70;99.90
45849;DHT22;31567;54.600;9.842;2023-02-01T00:13:02;5.70;99.90
45849;DHT22;31567;54.600;9.842;2023-02-01T00:16:41;5.80;99.90
45849;DHT22;31567;54.600;9.842;2023-02-01T00:20:21;5.80;99.90
45849;DHT22;31567;54.600;9.842;2023-02-01T00:24:01;5.80;99.90
45849;DHT22;31567;54.600;9.842;2023-02-01T00:27:40;5.80;99.90
45849;DHT22;31567;54.600;9.842;2023-02-01T00:31:20;5.80;99.90
45849;DHT22;31567;54.600;9.842;2023-02-01T00:34:59;5.50;99.90
45849;DHT22;31567;54.600;9.842;2023-02-01T00:38:39;5.20;99.90
45849;DHT22;31567;54.600;9.842;2023-02-01T00:42:18;4.90;99.90
45849;DHT22;31567;54.600;9.842;2023-02-01T00:45:58;4.60;99.90
45849;DHT22;31567;54.600;9.842;2023-02-01T00:49:38;4.40;99.90
45849;DHT22;31567;54.600;9.842;2023-02-01T00:53:18;4.10;99.90
45849;DHT22;31567;54.600;9.842;2023-02-01T00:56:58;4.00;99.90
45849;DHT22;31567;54.600;9.842;2023-02-01T01:00:37;3.90;99.90
45849;DHT22;31567;54.600;9.842;2023-02-01T01:04:17;4.00;99.90
45849;DHT22;31567;54.600;9.842;2023-02-01T01:07:56;4.00;99.90
45849;DHT22;31567;54.600;9.842;2023-02-01T01:11:37;4.00;99.90
45849;DHT22;31567;54.600;9.842;2023-02-01T01:15:17;4.10;99.90
45849;DHT22;31567;54.600;9.842;2023-02-01T01:18:57;4.30;99.90
45849;DHT22;31567;54.600;9.842;2023-02-01T01:22:36;4.50;99.90
45849;DHT22;31567;54.600;9.842;2023-02-01T01:26:24;4.70;99.90
45849;DHT22;31567;54.600;9.842;2023-02-01T01:30:04;4.90;99.90
45849;DHT22;31567;54.600;9.842;2023-02-01T01:33:44;5.20;99.90
45849;DHT22;31567;54.600;9.842;2023-02-01T01:37:23;5.40;99.90
45849;DHT22;31567;54.600;9.842;2023-02-01T01:41:03;5.60;99.90
45849;DHT22;31567;54.600;9.842;2023-02-01T01:45:02;5.70;99.90
45849;DHT22;31567;54.600;9.842;2023-02-01T01:48:47;5.80;99.90
45849;DHT22;31567;54.600;9.842;2023-02-01T01:52:27;5.90;99.90
45849;DHT22;31567;54.600;9.842;2023-02-01T01:56:07;6.00;99.90
45849;DHT22;31567;54.600;9.842;2023-02-01T01:59:50;6.10;99.90
45849;DHT22;31567;54.600;9.842;2023-02-01T02:03:39;6.10;99.90
45849;DHT22;31567;54.600;9.842;2023-02-01T02:07:24;6.20;99.90
45849;DHT22;31567;54.600;9.842;2023-02-01T02:11:05;6.20;99.90
45849;DHT22;31567;54.600;9.842;2023-02-01T02:14:44;6.20;99.90
45849;DHT22;31567;54.600;9.842;2023-02-01T02:23:03;6.20;99.90
45849;DHT22;31567;54.600;9.842;2023-02-01T02:27:05;6.20;99.90
45849;DHT22;31567;54.600;9.842;2023-02-01T02:31:13;6.30;99.90
45849;DHT22;31567;54.600;9.842;2023-02-01T02:43:18;6.30;99.90
45849;DHT22;31567;54.600;9.842;2023-02-01T02:51:14;6.40;99.90
45849;DHT22;31567;54.600;9.842;2023-02-01T02:55:13;6.40;99.90
45849;DHT22;31567;54.600;9.842;2023-02-01T02:58:54;6.40;99.90
45849;DHT22;31567;54.600;9.842;2023-02-01T03:02:53;6.40;99.90
45849;DHT22;31567;54.600;9.842;2023-02-01T03:06:52;6.40;99.90
45849;DHT22;31567;54.600;9.842;2023-02-01T03:10:37;6.50;99.90
45849;DHT22;31567;54.600;9.842;2023-02-01T03:14:21;6.50;99.90
45849;DHT22;31567;54.600;9.842;2023-02-01T03:18:06;6.50;99.90
45849;DHT22;31567;54.600;9.842;2023-02-01T03:22:01;6.50;99.90
45849;DHT22;31567;54.600;9.842;2023-02-01T03:25:42;6.50;99.90
45849;DHT22;31567;54.600;9.842;2023-02-01T03:29:27;6.50;99.90
45849;DHT22;31567;54.600;9.842;2023-02-01T03:33:13;6.50;99.90
45849;DHT22;31567;54.600;9.842;2023-02-01T03:37:06;6.60;99.90
45849;DHT22;31567;54.600;9.842;2023-02-01T03:40:53;6.60;99.90
45849;DHT22;31567;54.600;9.842;2023-02-01T03:44:40;6.60;99.90
45849;DHT22;31567;54.600;9.842;2023-02-01T03:48:22;6.60;99.90
45849;DHT22;31567;54.600;9.842;2023-02-01T03:52:03;6.70;99.90
45849;DHT22;31567;54.600;9.842;2023-02-01T03:55:44;6.60;99.90
45849;DHT22;31567;54.600;9.842;2023-02-01T03:59:24;6.60;99.90
45849;DHT22;31567;54.600;9.842;2023-02-01T04:03:05;6.50;99.90
45849;DHT22;31567;54.600;9.842;2023-02-01T04:06:49;6.50;99.90
45849;DHT22;31567;54.600;9.842;2023-02-01T04:10:29;6.50;99.90
45849;DHT22;31567;54.600;9.842;2023-02-01T04:14:08;6.40;99.90
45849;DHT22;31567;54.600;9.842;2023-02-01T04:17:48;6.40;99.90
45849;DHT22;31567;54.600;9.842;2023-02-01T04:21:28;6.40;99.90
45849;DHT22;31567;54.600;9.842;2023-02-01T04:25:08;6.40;99.90
45849;DHT22;31567;54.600;9.842;2023-02-01T04:28:47;6.40;99.90
45849;DHT22;31567;54.600;9.842;2023-02-01T04:32:27;6.40;99.90
45849;DHT22;31567;54.600;9.842;2023-02-01T04:36:07;6.40;99.90
45849;DHT22;31567;54.600;9.842;2023-02-01T04:39:46;6.40;99.90
45849;DHT22;31567;54.600;9.842;2023-02-01T04:43:26;6.40;99.90
45849;DHT22;31567;54.600;9.842;2023-02-01T04:47:05;6.40;99.90
45849;DHT22;31567;54.600;9.842;2023-02-01T04:50:46;6.40;99.90
45849;DHT22;31567;54.600;9.842;2023-02-01T04:54:26;6.40;99.90
45849;DHT22;31567;54.600;9.842;2023-02-01T04:58:06;6.40;99.90
45849;DHT22;31567;54.600;9.842;2023-02-01T05:01:45;6.40;99.90
45849;DHT22;31567;54.600;9.842;2023-02-01T05:05:26;6.50;99.90
45849;DHT22;31567;54.600;9.842;2023-02-01T05:09:05;6.50;99.90
45849;DHT22;31567;54.600;9.842;2023-02-01T05:12:45;6.50;99.90
45849;DHT22;31567;54.600;9.842;2023-02-01T05:16:43;6.50;99.90
45849;DHT22;31567;54.600;9.842;2023-02-01T05:20:23;6.50;99.90
45849;DHT22;31567;54.600;9.842;2023-02-01T05:24:03;6.60;99.90
45849;DHT22;31567;54.600;9.842;2023-02-01T05:27:49;6.50;99.90
45849;DHT22;31567;54.600;9.842;2023-02-01T05:31:28;6.50;99.90
45849;DHT22;31567;54.600;9.842;2023-02-01T05:35:08;6.50;99.90
45849;DHT22;31567;54.600;9.842;2023-02-01T05:38:48;6.40;99.90
45849;DHT22;31567;54.600;9.842;2023-02-01T05:42:27;6.40;99.90
45849;DHT22;31567;54.600;9.842;2023-02-01T05:46:07;6.50;99.90
45849;DHT22;31567;54.600;9.842;2023-02-01T05:49:49;6.50;99.90
45849;DHT22;31567;54.600;9.842;2023-02-01T05:53:29;6.50;99.90
45849;DHT22;31567;54.600;9.842;2023-02-01T05:57:09;6.50;99.90
45849;DHT22;31567;54.600;9.842;2023-02-01T06:00:48;6.30;99.90
45849;DHT22;31567;54.600;9.842;2023-02-01T06:04:28;6.30;99.90
45849;DHT22;31567;54.600;9.842;2023-02-01T06:08:07;6.30;99.90
45849;DHT22;31567;54.600;9.842;2023-02-01T06:11:47;6.30;99.90
45849;DHT22;31567;54.600;9.842;2023-02-01T06:15:26;6.20;99.90
45849;DHT22;31567;54.600;9.842;2023-02-01T06:19:06;6.20;99.90
45849;DHT22;31567;54.600;9.842;2023-02-01T06:22:45;6.30;99.90
45849;DHT22;31567;54.600;9.842;2023-02-01T06:26:25;6.30;99.90
45849;DHT22;31567;54.600;9.842;2023-02-01T06:30:06;6.30;99.90
45849;DHT22;31567;54.600;9.842;2023-02-01T06:33:46;6.30;99.90
45849;DHT22;31567;54.600;9.842;2023-02-01T06:37:26;6.40;99.90
45849;DHT22;31567;54.600;9.842;2023-02-01T06:41:09;6.40;99.90
45849;DHT22;31567;54.600;9.842;2023-02-01T06:44:49;6.40;99.90
45849;DHT22;31567;54.600;9.842;2023-02-01T06:48:28;6.40;99.90
45849;DHT22;31567;54.600;9.842;2023-02-01T06:52:08;6.40;99.90
45849;DHT22;31567;54.600;9.842;2023-02-01T06:56:00;6.50;99.90
45849;DHT22;31567;54.600;9.842;2023-02-01T06:59:40;6.40;99.90
45849;DHT22;31567;54.600;9.842;2023-02-01T07:03:20;6.40;99.90
45849;DHT22;31567;54.600;9.842;2023-02-01T07:06:59;6.50;99.90
45849;DHT22;31567;54.600;9.842;2023-02-01T07:10:39;6.40;99.90
45849;DHT22;31567;54.600;9.842;2023-02-01T07:14:19;6.50;99.90
45849;DHT22;31567;54.600;9.842;2023-02-01T07:17:58;6.50;99.90
45849;DHT22;31567;54.600;9.842;2023-02-01T07:21:38;6.50;99.90
45849;DHT22;31567;54.600;9.842;2023-02-01T07:25:17;6.50;99.90
45849;DHT22;31567;54.600;9.842;2023-02-01T07:28:57;6.50;99.90
45849;DHT22;31567;54.600;9.842;2023-02-01T07:32:36;6.50;99.90
45849;DHT22;31567;54.600;9.842;2023-02-01T07:36:16;6.50;99.90
45849;DHT22;31567;54.600;9.842;2023-02-01T07:39:56;6.50;99.90
45849;DHT22;31567;54.600;9.842;2023-02-01T07:43:36;6.50;99.90
45849;DHT22;31567;54.600;9.842;2023-02-01T07:47:16;6.40;99.90
45849;DHT22;31567;54.600;9.842;2023-02-01T07:51:03;6.50;99.90
45849;DHT22;31567;54.600;9.842;2023-02-01T07:54:43;6.50;99.90
45849;DHT22;31567;54.600;9.842;2023-02-01T07:58:24;6.50;99.90
45849;DHT22;31567;54.600;9.842;2023-02-01T08:02:03;6.50;99.90
45849;DHT22;31567;54.600;9.842;2023-02-01T08:05:43;6.50;99.90
45849;DHT22;31567;54.600;9.842;2023-02-01T08:09:22;6.60;99.90
45849;DHT22;31567;54.600;9.842;2023-02-01T08:13:02;6.60;99.90
45849;DHT22;31567;54.600;9.842;2023-02-01T08:16:42;6.60;99.90
45849;DHT22;31567;54.600;9.842;2023-02-01T08:20:22;6.60;99.90
45849;DHT22;31567;54.600;9.842;2023-02-01T08:24:09;6.70;99.90
45849;DHT22;31567;54.600;9.842;2023-02-01T08:27:50;6.70;99.90
45849;DHT22;31567;54.600;9.842;2023-02-01T08:31:30;6.70;99.90
45849;DHT22;31567;54.600;9.842;2023-02-01T08:35:10;6.80;99.90
45849;DHT22;31567;54.600;9.842;2023-02-01T08:38:49;6.70;99.90
45849;DHT22;31567;54.600;9.842;2023-02-01T08:42:29;6.40;99.90
45849;DHT22;31567;54.600;9.842;2023-02-01T08:46:27;6.30;99.90
45849;DHT22;31567;54.600;9.842;2023-02-01T08:50:07;6.30;99.90
45849;DHT22;31567;54.600;9.842;2023-02-01T08:53:48;6.40;99.90
45849;DHT22;31567;54.600;9.842;2023-02-01T08:57:28;6.40;99.90
45849;DHT22;31567;54.600;9.842;2023-02-01T09:01:15;6.30;99.90
45849;DHT22;31567;54.600;9.842;2023-02-01T09:04:56;6.40;99.90
45849;DHT22;31567;54.600;9.842;2023-02-01T09:08:37;6.40;99.90
45849;DHT22;31567;54.600;9.842;2023-02-01T09:12:16;6.50;99.90
45849;DHT22;31567;54.600;9.842;2023-02-01T09:15:56;6.60;99.90
45849;DHT22;31567;54.600;9.842;2023-02-01T09:19:36;6.80;99.90
45849;DHT22;31567;54.600;9.842;2023-02-01T09:23:16;6.80;99.90
45849;DHT22;31567;54.600;9.842;2023-02-01T09:26:55;6.90;99.90
45849;DHT22;31567;54.600;9.842;2023-02-01T09:30:36;7.00;99.90
45849;DHT22;31567;54.600;9.842;2023-02-01T09:34:16;7.10;99.90
45849;DHT22;31567;54.600;9.842;2023-02-01T09:37:55;7.10;99.90
45849;DHT22;31567;54.600;9.842;2023-02-01T09:42:15;7.20;99.90
45849;DHT22;31567;54.600;9.842;2023-02-01T09:46:06;7.20;99.90
45849;DHT22;31567;54.600;9.842;2023-02-01T09:53:42;7.20;99.90
45849;DHT22;31567;54.600;9.842;2023-02-01T09:57:33;7.30;99.90
45849;DHT22;31567;54.600;9.842;2023-02-01T10:01:21;7.30;99.90
45849;DHT22;31567;54.600;9.842;2023-02-01T10:05:01;7.40;99.90
45849;DHT22;31567;54.600;9.842;2023-02-01T10:09:10;7.50;99.90
45849;DHT22;31567;54.600;9.842;2023-02-01T10:22:24;7.60;99.90
45849;DHT22;31567;54.600;9.842;2023-02-01T10:25:54;7.70;99.90
45849;DHT22;31567;54.600;9.842;2023-02-01T10:29:37;7.80;99.90
45849;DHT22;31567;54.600;9.842;2023-02-01T10:33:39;7.80;99.90
45849;DHT22;31567;54.600;9.842;2023-02-01T10:41:16;7.90;99.90
45849;DHT22;31567;54.600;9.842;2023-02-01T10:44:59;7.90;99.90
45849;DHT22;31567;54.600;9.842;2023-02-01T10:48:40;7.90;99.90
45849;DHT22;31567;54.600;9.842;2023-02-01T10:52:31;7.90;99.90
45849;DHT22;31567;54.600;9.842;2023-02-01T10:56:13;8.10;99.90
45849;DHT22;31567;54.600;9.842;2023-02-01T10:59:52;8.20;99.90
45849;DHT22;31567;54.600;9.842;2023-02-01T11:03:54;8.20;99.90
45849;DHT22;31567;54.600;9.842;2023-02-01T11:07:35;8.20;99.90
45849;DHT22;31567;54.600;9.842;2023-02-01T11:11:16;8.40;99.90
45849;DHT22;31567;54.600;9.842;2023-02-01T11:18:53;8.40;99.90
45849;DHT22;31567;54.600;9.842;2023-02-01T11:22:34;8.30;99.90
45849;DHT22;31567;54.600;9.842;2023-02-01T11:26:26;8.10;99.90
45849;DHT22;31567;54.600;9.842;2023-02-01T11:30:13;7.90;99.90
45849;DHT22;31567;54.600;9.842;2023-02-01T11:33:58;7.50;99.90
45849;DHT22;31567;54.600;9.842;2023-02-01T11:37:41;7.00;99.90
45849;DHT22;31567;54.600;9.842;2023-02-01T11:41:24;6.60;99.90
45849;DHT22;31567;54.600;9.842;2023-02-01T11:45:20;6.30;99.90
45849;DHT22;31567;54.600;9.842;2023-02-01T11:49:20;5.90;99.90
45849;DHT22;31567;54.600;9.842;2023-02-01T11:53:14;5.40;99.90
45849;DHT22;31567;54.600;9.842;2023-02-01T11:57:26;5.30;99.90
45849;DHT22;31567;54.600;9.842;2023-02-01T12:05:23;4.90;99.90
45849;DHT22;31567;54.600;9.842;2023-02-01T12:09:13;4.80;99.90
45849;DHT22;31567;54.600;9.842;2023-02-01T12:13:01;4.70;99.90
45849;DHT22;31567;54.600;9.842;2023-02-01T12:21:16;5.00;99.90
45849;DHT22;31567;54.600;9.842;2023-02-01T12:33:14;5.20;99.90
45849;DHT22;31567;54.600;9.842;2023-02-01T12:37:22;5.10;99.90
45849;DHT22;31567;54.600;9.842;2023-02-01T12:45:26;4.90;99.90
45849;DHT22;31567;54.600;9.842;2023-02-01T12:52:51;4.60;99.90
45849;DHT22;31567;54.600;9.842;2023-02-01T12:56:41;4.70;99.90
45849;DHT22;31567;54.600;9.842;2023-02-01T13:00:32;4.80;99.90
45849;DHT22;31567;54.600;9.842;2023-02-01T13:08:06;4.80;99.90
45849;DHT22;31567;54.600;9.842;2023-02-01T13:11:49;4.90;99.90
45849;DHT22;31567;54.600;9.842;2023-02-01T13:23:38;5.10;99.90
45849;DHT22;31567;54.600;9.842;2023-02-01T13:27:19;5.20;99.90
45849;DHT22;31567;54.600;9.842;2023-02-01T13:35:15;5.50;99.90
45849;DHT22;31567;54.600;9.842;2023-02-01T13:39:12;5.60;99.90
45849;DHT22;31567;54.600;9.842;2023-02-01T13:43:01;5.80;99.90
45849;DHT22;31567;54.600;9.842;2023-02-01T13:46:44;6.00;99.90
45849;DHT22;31567;54.600;9.842;2023-02-01T13:50:36;6.10;99.90
45849;DHT22;31567;54.600;9.842;2023-02-01T13:54:29;6.20;99.90
45849;DHT22;31567;54.600;9.842;2023-02-01T13:58:28;6.30;99.90
45849;DHT22;31567;54.600;9.842;2023-02-01T14:06:42;6.40;99.90
45849;DHT22;31567;54.600;9.842;2023-02-01T14:26:05;6.80;99.90
45849;DHT22;31567;54.600;9.842;2023-02-01T14:29:57;6.80;99.90
45849;DHT22;31567;54.600;9.842;2023-02-01T14:33:41;6.90;99.90
45849;DHT22;31567;54.600;9.842;2023-02-01T14:41:18;7.00;99.90
45849;DHT22;31567;54.600;9.842;2023-02-01T14:48:58;7.00;99.90
45849;DHT22;31567;54.600;9.842;2023-02-01T14:52:40;7.00;99.90
45849;DHT22;31567;54.600;9.842;2023-02-01T14:56:24;7.10;99.90
45849;DHT22;31567;54.600;9.842;2023-02-01T15:00:26;7.10;99.90
45849;DHT22;31567;54.600;9.842;2023-02-01T15:04:13;7.10;99.90
45849;DHT22;31567;54.600;9.842;2023-02-01T15:08:03;7.20;99.90
45849;DHT22;31567;54.600;9.842;2023-02-01T15:12:17;7.20;99.90
45849;DHT22;31567;54.600;9.842;2023-02-01T15:16:12;7.20;99.90
45849;DHT22;31567;54.600;9.842;2023-02-01T15:19:57;7.30;99.90
45849;DHT22;31567;54.600;9.842;2023-02-01T15:23:37;7.30;99.90
45849;DHT22;31567;54.600;9.842;2023-02-01T15:27:17;7.30;99.90
45849;DHT22;31567;54.600;9.842;2023-02-01T15:30:58;7.30;99.90
45849;DHT22;31567;54.600;9.842;2023-02-01T15:34:49;7.30;99.90
45849;DHT22;31567;54.600;9.842;2023-02-01T15:38:33;7.40;99.90
45849;DHT22;31567;54.600;9.842;2023-02-01T15:42:17;7.30;99.90
45849;DHT22;31567;54.600;9.842;2023-02-01T15:46:01;7.30;99.90
45849;DHT22;31567;54.600;9.842;2023-02-01T15:49:43;7.40;99.90
45849;DHT22;31567;54.600;9.842;2023-02-01T15:53:25;7.20;99.90
45849;DHT22;31567;54.600;9.842;2023-02-01T15:57:10;7.20;99.90
45849;DHT22;31567;54.600;9.842;2023-02-01T16:01:02;7.00;99.90
45849;DHT22;31567;54.600;9.842;2023-02-01T16:04:47;6.90;99.90
45849;DHT22;31567;54.600;9.842;2023-02-01T16:08:31;6.80;99.90
45849;DHT22;31567;54.600;9.842;2023-02-01T16:12:31;6.70;99.90
45849;DHT22;31567;54.600;9.842;2023-02-01T16:16:11;6.70;99.90
45849;DHT22;31567;54.600;9.842;2023-02-01T16:19:53;6.70;99.90
45849;DHT22;31567;54.600;9.842;2023-02-01T16:23:32;6.70;99.90
45849;DHT22;31567;54.600;9.842;2023-02-01T16:27:12;6.70;99.90
45849;DHT22;31567;54.600;9.842;2023-02-01T16:30:51;6.80;99.90
45849;DHT22;31567;54.600;9.842;2023-02-01T16:34:31;6.80;99.90
45849;DHT22;31567;54.600;9.842;2023-02-01T16:38:12;6.70;99.90
45849;DHT22;31567;54.600;9.842;2023-02-01T16:41:52;6.80;99.90
45849;DHT22;31567;54.600;9.842;2023-02-01T16:45:31;6.80;99.90
45849;DHT22;31567;54.600;9.842;2023-02-01T16:49:19;6.90;99.90
45849;DHT22;31567;54.600;9.842;2023-02-01T16:52:59;6.90;99.90
45849;DHT22;31567;54.600;9.842;2023-02-01T16:56:41;6.90;99.90
45849;DHT22;31567;54.600;9.842;2023-02-01T17:00:21;6.90;99.90
45849;DHT22;31567;54.600;9.842;2023-02-01T17:04:01;6.90;99.90
45849;DHT22;31567;54.600;9.842;2023-02-01T17:07:41;6.90;99.90
45849;DHT22;31567;54.600;9.842;2023-02-01T17:11:21;6.90;99.90
45849;DHT22;31567;54.600;9.842;2023-02-01T17:15:00;6.90;99.90
45849;DHT22;31567;54.600;9.842;2023-02-01T17:18:40;6.90;99.90
45849;DHT22;31567;54.600;9.842;2023-02-01T17:22:20;6.80;99.90
45849;DHT22;31567;54.600;9.842;2023-02-01T17:26:00;6.80;99.90
45849;DHT22;31567;54.600;9.842;2023-02-01T17:29:41;6.80;99.90
45849;DHT22;31567;54.600;9.842;2023-02-01T17:33:27;6.80;99.90
45849;DHT22;31567;54.600;9.842;2023-02-01T17:37:31;6.80;99.90
45849;DHT22;31567;54.600;9.842;2023-02-01T17:41:12;6.80;99.90
45849;DHT22;31567;54.600;9.842;2023-02-01T17:44:55;6.70;99.90
45849;DHT22;31567;54.600;9.842;2023-02-01T17:48:35;6.70;99.90
45849;DHT22;31567;54.600;9.842;2023-02-01T17:52:16;6.70;99.90
45849;DHT22;31567;54.600;9.842;2023-02-01T17:55:56;6.60;99.90
45849;DHT22;31567;54.600;9.842;2023-02-01T17:59:36;6.70;99.90
45849;DHT22;31567;54.600;9.842;2023-02-01T18:03:20;6.70;99.90
45849;DHT22;31567;54.600;9.842;2023-02-01T18:07:01;6.70;99.90
45849;DHT22;31567;54.600;9.842;2023-02-01T18:10:41;6.70;99.90
45849;DHT22;31567;54.600;9.842;2023-02-01T18:14:20;6.70;99.90
45849;DHT22;31567;54.600;9.842;2023-02-01T18:18:00;6.70;99.90
45849;DHT22;31567;54.600;9.842;2023-02-01T18:21:42;6.70;99.90
45849;DHT22;31567;54.600;9.842;2023-02-01T18:25:27;6.70;99.90
45849;DHT22;31567;54.600;9.842;2023-02-01T18:29:08;6.60;99.90
45849;DHT22;31567;54.600;9.842;2023-02-01T18:32:48;6.60;99.90
45849;DHT22;31567;54.600;9.842;2023-02-01T18:36:28;6.60;99.90
45849;DHT22;31567;54.600;9.842;2023-02-01T18:40:13;6.60;99.90
45849;DHT22;31567;54.600;9.842;2023-02-01T18:43:53;6.40;99.90
45849;DHT22;31567;54.600;9.842;2023-02-01T18:47:33;6.40;99.90
45849;DHT22;31567;54.600;9.842;2023-02-01T18:51:16;6.40;99.90
45849;DHT22;31567;54.600;9.842;2023-02-01T18:54:58;6.40;99.90
45849;DHT22;31567;54.600;9.842;2023-02-01T18:58:38;6.50;99.90
45849;DHT22;31567;54.600;9.842;2023-02-01T19:02:17;6.40;99.90
45849;DHT22;31567;54.600;9.842;2023-02-01T19:05:57;6.50;99.90
45849;DHT22;31567;54.600;9.842;2023-02-01T19:09:37;6.40;99.90
45849;DHT22;31567;54.600;9.842;2023-02-01T19:13:16;6.40;99.90
45849;DHT22;31567;54.600;9.842;2023-02-01T19:16:59;6.40;99.90
45849;DHT22;31567;54.600;9.842;2023-02-01T19:20:38;6.50;99.90
45849;DHT22;31567;54.600;9.842;2023-02-01T19:24:19;6.50;99.90
45849;DHT22;31567;54.600;9.842;2023-02-01T19:27:59;6.50;99.90
45849;DHT22;31567;54.600;9.842;2023-02-01T19:31:38;6.60;99.90
45849;DHT22;31567;54.600;9.842;2023-02-01T19:35:19;6.50;99.90
45849;DHT22;31567;54.600;9.842;2023-02-01T19:38:59;6.60;99.90
45849;DHT22;31567;54.600;9.842;2023-02-01T19:42:39;6.60;99.90
45849;DHT22;31567;54.600;9.842;2023-02-01T19:46:18;6.70;99.90
45849;DHT22;31567;54.600;9.842;2023-02-01T19:49:58;6.70;99.90
45849;DHT22;31567;54.600;9.842;2023-02-01T19:53:37;6.70;99.90
45849;DHT22;31567;54.600;9.842;2023-02-01T19:57:17;6.80;99.90
45849;DHT22;31567;54.600;9.842;2023-02-01T20:00:57;6.80;99.90
45849;DHT22;31567;54.600;9.842;2023-02-01T20:04:38;6.90;99.90
45849;DHT22;31567;54.600;9.842;2023-02-01T20:08:18;6.90;99.90
45849;DHT22;31567;54.600;9.842;2023-02-01T20:11:57;6.90;99.90
45849;DHT22;31567;54.600;9.842;2023-02-01T20:15:37;6.90;99.90
45849;DHT22;31567;54.600;9.842;2023-02-01T20:19:17;6.90;99.90
45849;DHT22;31567;54.600;9.842;2023-02-01T20:22:56;6.80;99.90
45849;DHT22;31567;54.600;9.842;2023-02-01T20:26:36;6.80;99.90
45849;DHT22;31567;54.600;9.842;2023-02-01T20:30:16;6.60;99.90
45849;DHT22;31567;54.600;9.842;2023-02-01T20:33:59;6.50;99.90
45849;DHT22;31567;54.600;9.842;2023-02-01T20:37:39;6.50;99.90
45849;DHT22;31567;54.600;9.842;2023-02-01T20:41:21;6.50;99.90
45849;DHT22;31567;54.600;9.842;2023-02-01T20:45:02;6.40;99.90
45849;DHT22;31567;54.600;9.842;2023-02-01T20:48:46;6.50;99.90
45849;DHT22;31567;54.600;9.842;2023-02-01T20:52:26;6.60;99.90
45849;DHT22;31567;54.600;9.842;2023-02-01T20:56:06;6.70;99.90
45849;DHT22;31567;54.600;9.842;2023-02-01T20:59:46;6.70;99.90
45849;DHT22;31567;54.600;9.842;2023-02-01T21:03:27;6.80;99.90
45849;DHT22;31567;54.600;9.842;2023-02-01T21:07:07;6.90;99.90
45849;DHT22;31567;54.600;9.842;2023-02-01T21:11:05;6.90;99.90
45849;DHT22;31567;54.600;9.842;2023-02-01T21:14:46;6.90;99.90
45849;DHT22;31567;54.600;9.842;2023-02-01T21:18:25;7.00;99.90
45849;DHT22;31567;54.600;9.842;2023-02-01T21:22:05;7.00;99.90
45849;DHT22;31567;54.600;9.842;2023-02-01T21:25:45;7.00;99.90
45849;DHT22;31567;54.600;9.842;2023-02-01T21:29:24;7.00;99.90
45849;DHT22;31567;54.600;9.842;2023-02-01T21:33:04;6.90;99.90
45849;DHT22;31567;54.600;9.842;2023-02-01T21:36:44;6.90;99.90
45849;DHT22;31567;54.600;9.842;2023-02-01T21:40:24;6.90;99.90
45849;DHT22;31567;54.600;9.842;2023-02-01T21:44:04;6.90;99.90
45849;DHT22;31567;54.600;9.842;2023-02-01T21:47:44;7.00;99.90
45849;DHT22;31567;54.600;9.842;2023-02-01T21:51:24;6.90;99.90
45849;DHT22;31567;54.600;9.842;2023-02-01T21:55:04;6.90;99.90
45849;DHT22;31567;54.600;9.842;2023-02-01T21:58:45;6.90;99.90
45849;DHT22;31567;54.600;9.842;2023-02-01T22:02:25;6.90;99.90
45849;DHT22;31567;54.600;9.842;2023-02-01T22:06:05;6.90;99.90
45849;DHT22;31567;54.600;9.842;2023-02-01T22:09:46;6.90;99.90
45849;DHT22;31567;54.600;9.842;2023-02-01T22:13:26;6.90;99.90
45849;DHT22;31567;54.600;9.842;2023-02-01T22:17:05;6.90;99.90
45849;DHT22;31567;54.600;9.842;2023-02-01T22:20:45;6.90;99.90
45849;DHT22;31567;54.600;9.842;2023-02-01T22:24:25;6.80;99.90
45849;DHT22;31567;54.600;9.842;2023-02-01T22:28:05;6.90;99.90
45849;DHT22;31567;54.600;9.842;2023-02-01T22:31:44;6.80;99.90
45849;DHT22;31567;54.600;9.842;2023-02-01T22:35:24;6.90;99.90
45849;DHT22;31567;54.600;9.842;2023-02-01T22:39:04;6.80;99.90
45849;DHT22;31567;54.600;9.842;2023-02-01T22:42:45;6.80;99.90
45849;DHT22;31567;54.600;9.842;2023-02-01T22:46:26;6.80;99.90
45849;DHT22;31567;54.600;9.842;2023-02-01T22:50:07;6.90;99.90
45849;DHT22;31567;54.600;9.842;2023-02-01T22:53:47;6.80;99.90
45849;DHT22;31567;54.600;9.842;2023-02-01T22:57:26;6.90;99.90
45849;DHT22;31567;54.600;9.842;2023-02-01T23:01:13;6.90;99.90
45849;DHT22;31567;54.600;9.842;2023-02-01T23:04:54;6.90;99.90
45849;DHT22;31567;54.600;9.842;2023-02-01T23:08:34;6.80;99.90
45849;DHT22;31567;54.600;9.842;2023-02-01T23:12:14;6.80;99.90
45849;DHT22;31567;54.600;9.842;2023-02-01T23:15:54;6.80;99.90
45849;DHT22;31567;54.600;9.842;2023-02-01T23:19:33;6.70;99.90
45849;DHT22;31567;54.600;9.842;2023-02-01T23:23:13;6.90;99.90
45849;DHT22;31567;54.600;9.842;2023-02-01T23:26:52;6.90;99.90
45849;DHT22;31567;54.600;9.842;2023-02-01T23:30:32;6.90;99.90
45849;DHT22;31567;54.600;9.842;2023-02-01T23:34:12;6.90;99.90
45849;DHT22;31567;54.600;9.842;2023-02-01T23:37:52;6.90;99.90
45849;DHT22;31567;54.600;9.842;2023-02-01T23:41:31;6.90;99.90
45849;DHT22;31567;54.600;9.842;2023-02-01T23:45:11;6.90;99.90
45849;DHT22;31567;54.600;9.842;2023-02-01T23:48:51;6.90;99.90
45849;DHT22;31567;54.600;9.842;2023-02-01T23:52:31;6.80;99.90
45849;DHT22;31567;54.600;9.842;2023-02-01T23:56:21;6.80;99.90
